Time;durP1;ratioP1;P1;durP2;ratioP2;P2;SDS_P1;SDS_P2;PMS_P1;PMS_P2;Temp;Humidity;BMP_temperature;BMP_pressure;BME280_temperature;BME280_humidity;BME280_pressure;Samples;Min_cycle;Max_cycle;Signal;HPM_P1;HPM_P2
2021/04/23 00:00:42;;;;;;;10.45;5.90;;;6.20;74.90;;;;;;5035480;28;20033;-53
2021/04/23 00:03:17;;;;;;;13.73;6.15;;;6.20;74.70;;;;;;5032526;28;20129;-57
2021/04/23 00:05:43;;;;;;;11.82;5.68;;;6.20;74.90;;;;;;5042020;28;20489;-56
2021/04/23 00:08:10;;;;;;;14.23;7.32;;;6.00;75.50;;;;;;5031484;28;20040;-54
2021/04/23 00:10:36;;;;;;;9.98;6.25;;;6.10;75.10;;;;;;5033869;28;20037;-55
2021/04/23 00:13:02;;;;;;;13.00;7.68;;;6.10;75.40;;;;;;5031772;28;20029;-55
2021/04/23 00:15:29;;;;;;;10.50;5.82;;;5.90;75.50;;;;;;5033924;28;20104;-58
2021/04/23 00:17:55;;;;;;;13.60;5.78;;;5.90;75.90;;;;;;5031541;28;20116;-57
2021/04/23 00:20:23;;;;;;;11.20;6.35;;;6.00;75.70;;;;;;5042353;28;20124;-56
2021/04/23 00:22:49;;;;;;;12.65;6.65;;;5.90;76.10;;;;;;5025484;28;20029;-56
2021/04/23 00:25:27;;;;;;;12.70;5.70;;;5.80;76.50;;;;;;5029200;28;20064;-57
2021/04/23 00:27:56;;;;;;;17.67;6.72;;;5.80;76.90;;;;;;5012360;28;20081;-55
2021/04/23 00:30:24;;;;;;;18.10;5.93;;;5.90;76.40;;;;;;5033686;28;20370;-54
2021/04/23 00:32:50;;;;;;;13.75;6.22;;;6.00;76.30;;;;;;5046996;28;20025;-55
2021/04/23 00:35:16;;;;;;;13.35;7.20;;;6.00;76.60;;;;;;5040986;28;20048;-55
2021/04/23 00:37:47;;;;;;;11.85;6.30;;;5.90;76.80;;;;;;5035986;28;20022;-58
2021/04/23 00:40:35;;;;;;;11.35;6.22;;;5.90;77.00;;;;;;5032194;28;20028;-57
2021/04/23 00:43:01;;;;;;;17.98;7.00;;;5.90;77.30;;;;;;5018787;28;20071;-53
2021/04/23 00:45:29;;;;;;;14.48;6.82;;;5.70;77.80;;;;;;5029440;28;20436;-53
2021/04/23 00:47:58;;;;;;;12.80;7.53;;;5.90;77.50;;;;;;5015098;28;20034;-52
2021/04/23 00:50:33;;;;;;;11.20;6.22;;;5.90;77.10;;;;;;5022086;28;20528;-56
2021/04/23 00:53:00;;;;;;;12.82;6.32;;;5.80;77.70;;;;;;5015922;28;20030;-55
2021/04/23 00:55:26;;;;;;;10.77;6.05;;;5.80;78.00;;;;;;5039721;28;20099;-57
2021/04/23 00:57:51;;;;;;;18.00;6.90;;;5.90;77.70;;;;;;5031832;28;20075;-54
2021/04/23 01:00:18;;;;;;;14.77;6.45;;;5.90;77.70;;;;;;5037172;28;20061;-52
2021/04/23 01:02:43;;;;;;;14.25;6.57;;;5.80;78.10;;;;;;5038339;28;20544;-56
2021/04/23 01:05:10;;;;;;;11.85;6.70;;;5.80;78.20;;;;;;5044636;28;20124;-55
2021/04/23 01:07:44;;;;;;;13.85;7.18;;;5.70;78.70;;;;;;5030741;28;20117;-57
2021/04/23 01:10:11;;;;;;;17.02;7.65;;;5.80;78.60;;;;;;5040522;28;20029;-55
2021/04/23 01:12:37;;;;;;;11.02;7.15;;;5.70;78.60;;;;;;5021052;28;20374;-54
2021/04/23 01:15:04;;;;;;;17.13;7.93;;;5.60;79.10;;;;;;5045302;28;20034;-56
2021/04/23 01:17:29;;;;;;;11.45;7.22;;;5.60;79.20;;;;;;5032012;28;20709;-57
2021/04/23 01:19:55;;;;;;;15.30;7.70;;;5.60;79.70;;;;;;5018222;28;20109;-55
2021/04/23 01:22:21;;;;;;;15.13;7.35;;;5.60;79.50;;;;;;5032734;28;20025;-54
2021/04/23 01:24:46;;;;;;;17.98;8.57;;;5.60;80.00;;;;;;5033286;28;20035;-56
2021/04/23 01:27:12;;;;;;;15.30;7.57;;;5.50;80.20;;;;;;5034473;28;20112;-55
2021/04/23 01:29:37;;;;;;;15.85;7.65;;;5.40;80.70;;;;;;5031148;28;20083;-55
2021/04/23 01:32:03;;;;;;;17.15;7.53;;;5.40;81.00;;;;;;5023452;28;20061;-55
2021/04/23 01:34:33;;;;;;;16.88;8.05;;;5.40;81.20;;;;;;5040699;28;20037;-59
2021/04/23 01:37:01;;;;;;;15.35;8.18;;;5.40;81.40;;;;;;5021203;28;20038;-56
2021/04/23 01:39:30;;;;;;;14.30;8.20;;;5.40;81.40;;;;;;5035733;28;20029;-57
2021/04/23 01:41:58;;;;;;;19.02;9.02;;;5.20;82.40;;;;;;5040181;28;20026;-54
2021/04/23 01:44:25;;;;;;;14.80;8.60;;;5.20;82.50;;;;;;5040430;28;20037;-57
2021/04/23 01:46:52;;;;;;;18.80;9.05;;;5.20;82.80;;;;;;5035686;28;20107;-55
2021/04/23 01:49:20;;;;;;;16.48;8.15;;;5.20;82.80;;;;;;5036793;28;20052;-54
2021/04/23 01:51:51;;;;;;;15.95;8.70;;;5.20;82.80;;;;;;5015684;28;20405;-57
2021/04/23 01:54:17;;;;;;;24.17;9.77;;;5.20;83.10;;;;;;5034498;28;20397;-60
2021/04/23 01:56:44;;;;;;;18.02;9.00;;;5.20;83.00;;;;;;5015946;28;20077;-58
2021/04/23 01:59:10;;;;;;;14.50;7.90;;;5.10;83.40;;;;;;5024486;28;20033;-56
2021/04/23 02:01:36;;;;;;;17.73;8.98;;;5.20;83.20;;;;;;5032685;28;20034;-58
2021/04/23 02:04:05;;;;;;;16.33;9.05;;;5.30;82.80;;;;;;5020989;28;21634;-57
2021/04/23 02:06:31;;;;;;;21.80;9.30;;;5.20;83.10;;;;;;5021947;28;20047;-55
2021/04/23 02:08:57;;;;;;;17.85;8.15;;;5.20;83.10;;;;;;5022169;28;20098;-57
2021/04/23 02:11:23;;;;;;;26.73;10.10;;;5.30;82.90;;;;;;5034928;28;20061;-53
2021/04/23 02:13:51;;;;;;;20.73;9.43;;;5.30;83.00;;;;;;5015477;28;20034;-54
2021/04/23 02:16:18;;;;;;;17.65;9.35;;;5.30;83.30;;;;;;5028258;28;20030;-53
2021/04/23 02:18:45;;;;;;;21.23;9.55;;;5.20;83.80;;;;;;5015697;28;20030;-52
2021/04/23 02:21:12;;;;;;;17.90;9.57;;;5.20;83.70;;;;;;5037734;28;20509;-58
2021/04/23 02:23:42;;;;;;;19.65;9.45;;;5.20;84.00;;;;;;5026466;28;20029;-56
2021/04/23 02:26:08;;;;;;;18.15;9.68;;;5.20;83.90;;;;;;5027660;28;20058;-56
2021/04/23 02:28:34;;;;;;;18.17;9.77;;;5.20;83.80;;;;;;5014608;28;20030;-57
2021/04/23 02:31:10;;;;;;;17.58;9.02;;;5.20;84.00;;;;;;5040861;28;20059;-54
2021/04/23 02:33:36;;;;;;;22.55;9.70;;;5.10;84.40;;;;;;5025841;28;20030;-56
2021/04/23 02:36:03;;;;;;;25.30;10.30;;;5.00;84.80;;;;;;5034078;28;20022;-58
2021/04/23 02:38:29;;;;;;;17.75;8.95;;;5.20;84.30;;;;;;5032961;28;20066;-55
2021/04/23 02:40:56;;;;;;;20.20;10.02;;;5.20;84.00;;;;;;5046122;28;20484;-54
2021/04/23 02:43:30;;;;;;;20.42;10.70;;;5.20;84.10;;;;;;5026159;28;20037;-56
2021/04/23 02:45:57;;;;;;;19.88;9.35;;;5.10;84.30;;;;;;5040958;28;20029;-52
2021/04/23 02:48:24;;;;;;;20.00;9.68;;;5.00;84.70;;;;;;5012821;28;20155;-57
2021/04/23 02:50:54;;;;;;;19.83;9.73;;;5.00;84.70;;;;;;5028430;28;20040;-56
2021/04/23 02:53:20;;;;;;;20.67;9.63;;;5.10;84.80;;;;;;5018442;28;20049;-59
2021/04/23 02:55:46;;;;;;;20.20;9.90;;;5.00;84.80;;;;;;5033087;28;20156;-58
2021/04/23 02:58:16;;;;;;;20.08;9.88;;;4.90;84.90;;;;;;5016263;28;20446;-56
2021/04/23 03:00:47;;;;;;;18.30;9.35;;;4.70;85.80;;;;;;5035388;28;20025;-56
2021/04/23 03:03:13;;;;;;;17.13;10.00;;;4.80;85.40;;;;;;5022613;28;20035;-56
2021/04/23 03:05:41;;;;;;;22.45;10.10;;;4.70;85.60;;;;;;5024297;28;20038;-59
2021/04/23 03:08:08;;;;;;;20.70;10.25;;;4.80;85.80;;;;;;5015270;28;20060;-56
2021/04/23 03:10:37;;;;;;;18.60;9.48;;;4.70;85.90;;;;;;5033750;28;20037;-55
2021/04/23 03:13:10;;;;;;;25.10;10.38;;;4.60;86.10;;;;;;5033207;28;20398;-58
2021/04/23 03:15:35;;;;;;;19.58;10.88;;;4.80;85.60;;;;;;5015054;28;20030;-53
2021/04/23 03:18:01;;;;;;;27.38;9.75;;;4.80;85.50;;;;;;5013686;28;20053;-58
2021/04/23 03:20:27;;;;;;;18.27;9.68;;;4.80;85.20;;;;;;5017201;28;20096;-57
2021/04/23 03:22:54;;;;;;;19.13;10.25;;;4.60;86.50;;;;;;5025936;28;20362;-57
2021/04/23 03:25:23;;;;;;;17.13;9.75;;;4.50;86.70;;;;;;5030446;28;20039;-56
2021/04/23 03:27:49;;;;;;;18.80;10.10;;;4.30;87.40;;;;;;5019146;28;20088;-55
2021/04/23 03:30:22;;;;;;;18.23;10.18;;;4.60;86.50;;;;;;5028844;28;20493;-56
2021/04/23 03:32:48;;;;;;;18.77;9.57;;;4.50;86.70;;;;;;5015163;28;20084;-55
2021/04/23 03:35:14;;;;;;;21.83;10.68;;;4.50;86.80;;;;;;5026492;28;20041;-57
2021/04/23 03:37:41;;;;;;;18.98;10.88;;;4.50;87.00;;;;;;5022151;28;20077;-59
2021/04/23 03:40:09;;;;;;;22.45;10.40;;;4.60;86.40;;;;;;5029422;28;20091;-58
2021/04/23 03:42:35;;;;;;;22.60;10.82;;;4.60;86.50;;;;;;5033498;28;20033;-57
2021/04/23 03:45:00;;;;;;;18.65;9.85;;;4.70;86.20;;;;;;5032962;28;20604;-56
2021/04/23 03:47:26;;;;;;;20.35;9.88;;;4.50;86.60;;;;;;5034791;28;20030;-56
2021/04/23 03:49:52;;;;;;;21.63;9.98;;;4.60;85.90;;;;;;5032431;28;20025;-58
2021/04/23 03:52:18;;;;;;;20.88;10.15;;;4.70;86.10;;;;;;5034443;28;20037;-57
2021/04/23 03:54:43;;;;;;;19.83;10.13;;;4.70;85.70;;;;;;5032120;28;20040;-55
2021/04/23 03:57:10;;;;;;;18.92;10.05;;;4.70;86.00;;;;;;5034125;28;20040;-56
2021/04/23 03:59:36;;;;;;;18.35;9.48;;;4.60;86.10;;;;;;5032100;28;20049;-57
2021/04/23 04:02:02;;;;;;;25.45;10.65;;;4.50;86.50;;;;;;5032110;28;20049;-58
2021/04/23 04:04:28;;;;;;;19.13;10.23;;;4.60;86.20;;;;;;5032766;28;20045;-57
2021/04/23 04:06:53;;;;;;;20.05;9.73;;;4.70;85.90;;;;;;5035445;28;20394;-55
2021/04/23 04:09:19;;;;;;;19.58;9.85;;;4.60;85.90;;;;;;5032110;28;20374;-55
2021/04/23 04:11:46;;;;;;;21.40;10.60;;;4.50;86.40;;;;;;5037688;28;20056;-54
2021/04/23 04:14:11;;;;;;;19.05;9.00;;;4.40;87.40;;;;;;5020672;28;20041;-56
2021/04/23 04:16:37;;;;;;;19.48;10.18;;;4.50;86.60;;;;;;5031135;28;20394;-57
2021/04/23 04:19:03;;;;;;;15.07;9.77;;;4.40;87.20;;;;;;5012976;28;20382;-57
2021/04/23 04:21:29;;;;;;;21.20;9.30;;;4.40;87.00;;;;;;5030103;28;20025;-54
2021/04/23 04:23:55;;;;;;;18.63;8.52;;;4.40;87.00;;;;;;5026485;28;20040;-56
2021/04/23 04:26:20;;;;;;;23.38;10.45;;;4.50;87.30;;;;;;5032089;28;20094;-56
2021/04/23 04:28:47;;;;;;;19.67;9.52;;;4.60;86.70;;;;;;5032289;28;20061;-55
2021/04/23 04:31:12;;;;;;;22.38;9.15;;;4.80;85.70;;;;;;5022873;28;20045;-55
2021/04/23 04:33:38;;;;;;;20.10;10.30;;;4.90;85.30;;;;;;5028645;28;20041;-54
2021/04/23 04:36:04;;;;;;;19.45;10.00;;;5.00;85.10;;;;;;5030475;28;20033;-55
2021/04/23 04:38:29;;;;;;;17.13;8.48;;;4.90;85.10;;;;;;5022304;28;20037;-55
2021/04/23 04:40:55;;;;;;;18.38;9.07;;;4.90;85.50;;;;;;5029341;28;20075;-59
2021/04/23 04:43:21;;;;;;;22.45;8.77;;;4.90;85.40;;;;;;5032114;28;20068;-57
2021/04/23 04:45:47;;;;;;;16.55;9.00;;;5.00;85.40;;;;;;5019396;28;20038;-58
2021/04/23 04:48:13;;;;;;;17.40;8.98;;;5.10;85.10;;;;;;5040758;28;20397;-56
2021/04/23 04:50:43;;;;;;;17.00;9.20;;;5.30;84.40;;;;;;5024493;28;20436;-56
2021/04/23 04:53:10;;;;;;;15.65;8.82;;;5.30;84.00;;;;;;5013884;28;20045;-59
2021/04/23 04:55:38;;;;;;;21.80;8.48;;;5.40;83.60;;;;;;5011250;28;20041;-56
2021/04/23 04:58:06;;;;;;;16.40;8.45;;;5.30;83.90;;;;;;5010149;28;20030;-55
2021/04/23 05:00:33;;;;;;;12.95;7.65;;;5.40;83.80;;;;;;5022466;28;20374;-56
2021/04/23 05:02:58;;;;;;;16.58;7.88;;;5.40;83.20;;;;;;5036756;28;20091;-55
2021/04/23 05:05:25;;;;;;;15.40;7.03;;;5.40;83.30;;;;;;5032685;28;20108;-55
2021/04/23 05:07:51;;;;;;;13.20;7.57;;;5.50;83.10;;;;;;5032973;28;20041;-55
2021/04/23 05:10:17;;;;;;;15.27;7.60;;;5.50;82.80;;;;;;5014116;28;20044;-54
2021/04/23 05:12:42;;;;;;;14.93;7.55;;;5.50;82.80;;;;;;5017151;28;20494;-56
2021/04/23 05:15:10;;;;;;;13.23;8.50;;;5.60;82.50;;;;;;5016011;28;20087;-54
2021/04/23 05:17:36;;;;;;;12.45;6.72;;;5.60;82.30;;;;;;5033975;28;20056;-57
2021/04/23 05:20:05;;;;;;;15.88;6.85;;;5.60;82.10;;;;;;5016690;28;20034;-57
2021/04/23 05:22:32;;;;;;;9.77;7.35;;;5.70;82.30;;;;;;5036620;28;20028;-55
2021/04/23 05:24:58;;;;;;;12.70;6.75;;;5.80;81.90;;;;;;5031451;28;20097;-58
2021/04/23 05:27:24;;;;;;;13.75;6.95;;;5.80;82.00;;;;;;5030974;28;20098;-58
2021/04/23 05:29:49;;;;;;;12.80;7.90;;;5.90;81.80;;;;;;5022835;28;20134;-56
2021/04/23 05:32:15;;;;;;;14.90;8.32;;;6.00;81.00;;;;;;5019802;28;20045;-54
2021/04/23 05:34:40;;;;;;;15.88;9.13;;;5.90;81.20;;;;;;5011254;28;20045;-54
2021/04/23 05:37:09;;;;;;;13.23;8.20;;;5.80;81.60;;;;;;5026077;28;20124;-56
2021/04/23 05:39:36;;;;;;;17.38;8.13;;;5.90;81.30;;;;;;5014033;28;20441;-54
2021/04/23 05:42:03;;;;;;;16.77;9.48;;;5.90;81.40;;;;;;5022678;28;20057;-56
2021/04/23 05:44:29;;;;;;;13.82;8.55;;;6.10;81.10;;;;;;5019907;28;20104;-58
2021/04/23 05:46:54;;;;;;;16.52;8.27;;;5.90;81.50;;;;;;5034815;28;20125;-58
2021/04/23 05:49:20;;;;;;;15.55;8.18;;;5.90;81.80;;;;;;5033494;28;20029;-55
2021/04/23 05:51:45;;;;;;;15.30;7.97;;;5.90;82.20;;;;;;5032988;28;20075;-54
2021/04/23 05:54:11;;;;;;;17.02;8.00;;;6.10;81.70;;;;;;5031144;28;20041;-56
2021/04/23 05:56:36;;;;;;;14.50;8.15;;;6.10;81.90;;;;;;5014539;28;20036;-55
2021/04/23 05:59:03;;;;;;;13.70;8.05;;;6.10;81.50;;;;;;5040377;28;20501;-56
2021/04/23 06:01:29;;;;;;;16.48;8.75;;;6.10;81.80;;;;;;5032363;28;20494;-58
2021/04/23 06:03:54;;;;;;;17.42;8.13;;;6.10;81.80;;;;;;5041550;28;20076;-56
2021/04/23 06:06:20;;;;;;;11.80;7.97;;;6.10;81.80;;;;;;5024651;28;20030;-56
2021/04/23 06:08:46;;;;;;;16.65;8.27;;;6.20;82.00;;;;;;5034357;28;20121;-55
2021/04/23 06:11:17;;;;;;;14.98;7.97;;;6.30;81.40;;;;;;5040928;28;20489;-57
2021/04/23 06:13:44;;;;;;;13.43;7.63;;;6.30;81.50;;;;;;5035191;28;20026;-54
2021/04/23 06:16:10;;;;;;;17.35;8.30;;;6.00;82.20;;;;;;5042081;28;20045;-56
2021/04/23 06:18:36;;;;;;;18.38;8.73;;;6.00;82.50;;;;;;5014851;28;20131;-57
2021/04/23 06:21:02;;;;;;;15.77;7.95;;;6.10;82.10;;;;;;5034079;28;20033;-55
2021/04/23 06:23:27;;;;;;;12.15;7.30;;;6.30;81.40;;;;;;5047803;28;20041;-54
2021/04/23 06:25:53;;;;;;;12.32;7.60;;;6.50;80.60;;;;;;5035803;28;20041;-57
2021/04/23 06:28:19;;;;;;;12.40;6.80;;;6.60;79.90;;;;;;5025495;28;20112;-55
2021/04/23 06:30:45;;;;;;;15.15;7.45;;;6.60;80.30;;;;;;5036271;28;20033;-58
2021/04/23 06:33:20;;;;;;;17.65;6.70;;;6.50;80.40;;;;;;5022731;28;20433;-54
2021/04/23 06:35:46;;;;;;;14.70;6.75;;;6.50;80.20;;;;;;5041133;28;20059;-56
2021/04/23 06:38:12;;;;;;;10.98;6.95;;;6.70;79.80;;;;;;5032456;28;20107;-54
2021/04/23 06:40:38;;;;;;;14.48;7.47;;;6.50;81.00;;;;;;5038183;28;20033;-57
2021/04/23 06:43:05;;;;;;;15.40;6.82;;;6.60;81.00;;;;;;5046518;28;20111;-57
2021/04/23 06:45:32;;;;;;;11.32;6.95;;;6.70;80.40;;;;;;5031315;28;20132;-54
2021/04/23 06:47:58;;;;;;;15.20;7.40;;;6.60;79.80;;;;;;5018875;28;20034;-55
2021/04/23 06:50:24;;;;;;;16.80;7.45;;;6.60;80.20;;;;;;5024905;28;20034;-56
2021/04/23 06:52:53;;;;;;;18.65;7.38;;;6.60;79.80;;;;;;5032978;28;20512;-59
2021/04/23 06:55:20;;;;;;;15.40;6.32;;;6.60;80.20;;;;;;5033558;28;20521;-57
2021/04/23 06:57:46;;;;;;;15.00;7.38;;;6.80;79.20;;;;;;5013993;28;20042;-55
2021/04/23 07:00:22;;;;;;;13.27;6.70;;;6.60;79.50;;;;;;5025414;28;20112;-56
2021/04/23 07:02:48;;;;;;;14.43;6.75;;;6.60;79.50;;;;;;5015557;28;20391;-55
2021/04/23 07:05:14;;;;;;;13.82;6.28;;;6.60;79.80;;;;;;5022345;28;20033;-57
2021/04/23 07:07:40;;;;;;;13.30;6.35;;;6.70;79.10;;;;;;5018499;28;20401;-58
2021/04/23 07:10:09;;;;;;;11.73;6.05;;;6.90;78.60;;;;;;5027234;28;20451;-55
2021/04/23 07:12:34;;;;;;;12.18;6.35;;;7.00;78.20;;;;;;5016014;28;20050;-56
2021/04/23 07:15:00;;;;;;;12.15;6.47;;;7.00;78.20;;;;;;5034828;28;20037;-58
2021/04/23 07:17:26;;;;;;;11.63;6.00;;;6.90;78.70;;;;;;5025512;28;20035;-56
2021/04/23 07:19:51;;;;;;;13.02;7.43;;;6.80;78.80;;;;;;5013547;28;20029;-55
2021/04/23 07:22:17;;;;;;;16.08;7.55;;;7.00;78.10;;;;;;5034410;28;20394;-57
2021/04/23 07:24:44;;;;;;;9.57;6.53;;;6.80;79.00;;;;;;5031677;28;20112;-53
2021/04/23 07:27:10;;;;;;;17.27;7.43;;;7.00;78.30;;;;;;5021983;28;20096;-55
2021/04/23 07:29:36;;;;;;;12.25;7.05;;;7.10;78.10;;;;;;5026578;28;20042;-56
2021/04/23 07:32:02;;;;;;;17.63;6.75;;;7.20;77.90;;;;;;5019377;28;20042;-56
2021/04/23 07:34:28;;;;;;;13.38;7.35;;;7.10;78.50;;;;;;5020055;28;20030;-53
2021/04/23 07:36:54;;;;;;;14.48;6.88;;;7.30;77.90;;;;;;5027557;28;20036;-57
2021/04/23 07:39:22;;;;;;;15.23;7.93;;;7.40;77.40;;;;;;5032054;28;20095;-54
2021/04/23 07:41:50;;;;;;;15.80;7.72;;;7.50;77.20;;;;;;5027616;28;20099;-54
2021/04/23 07:44:16;;;;;;;12.98;7.47;;;7.40;77.50;;;;;;5027925;28;20067;-56
2021/04/23 07:46:41;;;;;;;13.20;7.30;;;7.30;77.50;;;;;;5033924;28;20655;-57
2021/04/23 07:49:07;;;;;;;18.98;7.40;;;7.20;78.10;;;;;;5029191;28;20064;-56
2021/04/23 07:51:32;;;;;;;17.42;7.78;;;7.30;78.20;;;;;;5027873;28;20049;-55
2021/04/23 07:53:58;;;;;;;14.98;7.68;;;7.40;77.90;;;;;;5026743;28;20033;-55
2021/04/23 07:56:24;;;;;;;14.88;7.50;;;7.40;78.50;;;;;;5032999;28;20033;-58
2021/04/23 07:58:49;;;;;;;12.30;6.70;;;7.40;75.50;;;;;;5032260;28;20030;-56
2021/04/23 08:01:15;;;;;;;10.93;6.70;;;7.50;73.60;;;;;;5032745;28;20120;-56
2021/04/23 08:03:40;;;;;;;10.32;5.82;;;7.60;73.20;;;;;;5031076;28;20042;-55
2021/04/23 08:06:06;;;;;;;7.93;5.32;;;7.60;72.00;;;;;;5033868;28;20034;-57
2021/04/23 08:08:31;;;;;;;9.73;5.85;;;7.70;71.10;;;;;;5029223;28;20034;-59
2021/04/23 08:10:57;;;;;;;13.50;5.60;;;7.60;71.80;;;;;;5033421;28;20037;-58
2021/04/23 08:13:23;;;;;;;11.93;5.75;;;7.80;71.40;;;;;;5035022;28;20449;-55
2021/04/23 08:15:50;;;;;;;11.88;6.20;;;7.70;72.20;;;;;;5032118;28;20040;-56
2021/04/23 08:18:15;;;;;;;15.63;5.82;;;7.60;72.30;;;;;;5031729;28;20029;-56
2021/04/23 08:20:41;;;;;;;11.80;6.32;;;7.60;72.90;;;;;;5033901;28;20029;-56
2021/04/23 08:23:06;;;;;;;15.15;5.88;;;7.70;73.40;;;;;;5031955;28;20068;-55
2021/04/23 08:25:32;;;;;;;10.25;6.57;;;7.80;73.60;;;;;;5031817;28;20025;-54
2021/04/23 08:27:58;;;;;;;12.43;6.22;;;7.90;72.70;;;;;;5029975;28;20032;-56
2021/04/23 08:30:26;;;;;;;12.98;6.78;;;7.90;73.20;;;;;;5031857;28;20029;-57
2021/04/23 08:32:53;;;;;;;10.82;6.22;;;7.90;74.60;;;;;;5035090;28;20041;-58
2021/04/23 08:35:19;;;;;;;13.77;5.82;;;7.90;73.60;;;;;;5031402;28;20038;-59
2021/04/23 08:37:47;;;;;;;10.52;5.22;;;7.80;72.90;;;;;;5036238;28;20038;-57
2021/04/23 08:40:14;;;;;;;10.50;5.10;;;7.90;71.70;;;;;;5036422;28;20081;-55
2021/04/23 08:42:41;;;;;;;10.43;5.70;;;8.00;70.70;;;;;;5031768;28;20018;-56
2021/04/23 08:45:18;;;;;;;11.55;6.32;;;8.00;70.80;;;;;;5037741;28;20029;-56
2021/04/23 08:47:45;;;;;;;11.07;5.82;;;7.90;70.50;;;;;;5026855;28;20091;-55
2021/04/23 08:50:12;;;;;;;9.75;5.68;;;8.00;70.60;;;;;;5031305;28;20117;-56
2021/04/23 08:52:41;;;;;;;14.45;5.55;;;8.10;69.60;;;;;;5031572;28;20401;-57
2021/04/23 08:55:08;;;;;;;9.52;6.03;;;8.00;70.20;;;;;;5038165;28;20090;-58
2021/04/23 08:57:34;;;;;;;13.48;5.00;;;8.10;70.80;;;;;;5038645;28;20111;-56
2021/04/23 08:59:59;;;;;;;11.07;5.68;;;8.10;70.20;;;;;;5031156;28;20518;-56
2021/04/23 09:02:25;;;;;;;11.27;5.32;;;7.90;71.00;;;;;;5027746;28;20045;-57
2021/04/23 09:04:50;;;;;;;8.88;5.60;;;8.00;71.20;;;;;;5034740;28;20029;-57
2021/04/23 09:07:16;;;;;;;11.63;5.93;;;8.10;70.30;;;;;;5035249;28;20084;-57
2021/04/23 09:09:43;;;;;;;14.02;6.55;;;8.20;69.60;;;;;;5036713;28;20033;-57
2021/04/23 09:12:18;;;;;;;10.40;6.00;;;8.10;69.90;;;;;;5019555;28;20104;-58
2021/04/23 09:14:45;;;;;;;12.82;6.28;;;8.20;69.80;;;;;;5023651;28;20136;-59
2021/04/23 09:17:11;;;;;;;12.85;6.20;;;8.10;70.50;;;;;;5024877;28;20216;-57
2021/04/23 09:19:37;;;;;;;14.35;6.93;;;8.20;70.60;;;;;;5044212;28;20404;-56
2021/04/23 09:22:04;;;;;;;13.75;7.47;;;8.10;70.60;;;;;;5028831;28;20033;-56
2021/04/23 09:24:35;;;;;;;13.05;7.28;;;8.30;67.30;;;;;;5026659;28;20521;-64
2021/04/23 09:27:15;;;;;;;13.93;8.55;;;8.30;67.50;;;;;;5024184;28;20037;-52
2021/04/23 09:29:43;;;;;;;12.90;7.03;;;8.30;68.80;;;;;;5023887;28;20040;-55
2021/04/23 09:32:10;;;;;;;11.75;7.20;;;8.40;69.00;;;;;;5039352;28;20033;-56
2021/04/23 09:34:47;;;;;;;10.75;6.57;;;8.30;70.10;;;;;;5031066;28;20030;-55
2021/04/23 09:37:12;;;;;;;11.88;6.88;;;8.40;70.50;;;;;;5034300;28;20045;-56
2021/04/23 09:39:38;;;;;;;11.85;6.53;;;8.30;71.50;;;;;;5030818;28;20037;-59
2021/04/23 09:42:08;;;;;;;9.98;7.03;;;8.40;70.20;;;;;;5044836;28;20036;-56
2021/04/23 09:44:42;;;;;;;10.18;6.65;;;8.40;69.10;;;;;;5027167;28;20070;-58
2021/04/23 09:47:18;;;;;;;12.52;7.28;;;8.30;69.50;;;;;;5051645;28;20057;-57
2021/04/23 09:49:46;;;;;;;16.33;7.50;;;8.30;70.40;;;;;;5030366;28;20469;-53
2021/04/23 09:52:14;;;;;;;10.52;7.18;;;8.50;70.00;;;;;;5033423;28;20026;-55
2021/04/23 09:54:54;;;;;;;15.82;9.05;;;8.70;69.50;;;;;;5037072;28;20079;-56
2021/04/23 09:57:22;;;;;;;12.75;7.97;;;8.70;69.30;;;;;;5024670;28;20037;-59
2021/04/23 09:59:50;;;;;;;11.57;8.00;;;8.80;70.00;;;;;;5029544;28;20029;-58
2021/04/23 10:02:16;;;;;;;15.65;8.32;;;9.20;69.40;;;;;;5014506;28;20157;-58
2021/04/23 10:04:43;;;;;;;18.17;8.75;;;9.40;69.60;;;;;;5035204;28;20049;-60
2021/04/23 10:07:10;;;;;;;12.32;8.00;;;9.60;68.70;;;;;;5035318;28;20044;-60
2021/04/23 10:09:47;;;;;;;12.40;8.20;;;9.50;66.70;;;;;;5039627;28;20029;-60
2021/04/23 10:12:26;;;;;;;14.23;8.13;;;9.40;66.10;;;;;;5042324;28;20022;-61
2021/04/23 10:15:05;;;;;;;13.90;8.05;;;9.40;66.20;;;;;;5047502;28;20033;-60
2021/04/23 10:17:31;;;;;;;15.52;8.43;;;9.50;65.90;;;;;;5015571;28;20034;-63
2021/04/23 10:19:58;;;;;;;19.10;8.13;;;9.50;66.40;;;;;;5034516;28;20040;-60
2021/04/23 10:22:25;;;;;;;14.05;8.48;;;9.60;66.50;;;;;;5045520;28;20030;-60
2021/04/23 10:24:51;;;;;;;15.57;8.20;;;9.80;67.50;;;;;;5034447;28;20045;-60
2021/04/23 10:27:19;;;;;;;13.60;8.15;;;9.60;65.70;;;;;;5032698;28;20401;-60
2021/04/23 10:29:47;;;;;;;10.40;7.60;;;9.70;66.10;;;;;;5043116;28;20039;-60
2021/04/23 10:32:14;;;;;;;12.25;7.32;;;9.70;65.70;;;;;;5029616;28;20038;-60
2021/04/23 10:34:41;;;;;;;14.23;8.98;;;9.80;65.50;;;;;;5030567;28;20409;-63
2021/04/23 10:37:07;;;;;;;12.70;8.57;;;9.70;65.40;;;;;;5041091;28;20048;-60
2021/04/23 10:39:35;;;;;;;10.80;8.20;;;9.80;65.70;;;;;;5027627;28;20045;-62
2021/04/23 10:42:02;;;;;;;13.52;8.55;;;9.90;65.50;;;;;;5035715;28;20164;-60
2021/04/23 10:44:58;;;;;;;16.45;9.57;;;9.90;65.30;;;;;;5033841;28;20029;-59
2021/04/23 10:47:34;;;;;;;14.13;9.23;;;9.80;65.80;;;;;;5027693;28;20100;-60
2021/04/23 10:50:13;;;;;;;19.23;10.32;;;9.80;67.00;;;;;;5034847;28;20021;-61
2021/04/23 10:53:02;;;;;;;14.90;9.30;;;9.80;65.80;;;;;;5045925;28;20439;-59
2021/04/23 10:55:54;;;;;;;14.05;8.20;;;9.80;64.80;;;;;;5032588;28;20025;-61
2021/04/23 10:58:26;;;;;;;13.18;8.18;;;9.70;64.60;;;;;;5036340;28;20187;-60
2021/04/23 11:00:53;;;;;;;14.35;8.70;;;9.60;63.90;;;;;;5039144;28;20113;-59
2021/04/23 11:03:32;;;;;;;14.98;9.35;;;9.70;64.30;;;;;;5027932;28;20496;-61
2021/04/23 11:06:02;;;;;;;11.88;8.50;;;10.00;63.80;;;;;;5026354;28;20156;-63
2021/04/23 11:08:30;;;;;;;13.30;8.45;;;10.40;63.00;;;;;;5034841;28;20048;-60
2021/04/23 11:11:02;;;;;;;14.32;10.63;;;10.60;63.20;;;;;;5032964;28;20040;-61
2021/04/23 11:13:32;;;;;;;15.55;8.35;;;10.50;62.40;;;;;;5039752;28;20029;-60
2021/04/23 11:16:16;;;;;;;12.75;8.25;;;10.50;63.00;;;;;;5035787;28;20056;-59
2021/04/23 11:18:41;;;;;;;13.38;7.88;;;10.50;62.30;;;;;;5032985;28;20036;-60
2021/04/23 11:21:26;;;;;;;13.77;9.07;;;10.70;62.10;;;;;;5031500;28;20388;-61
2021/04/23 11:24:19;;;;;;;14.07;9.63;;;10.60;62.30;;;;;;5027173;28;20033;-60
2021/04/23 11:29:22;;;;;;;;;;;10.50;62.50;;;;;;5039348;28;20021;-60
2021/04/23 11:32:12;;;;;;;15.80;9.15;;;10.20;63.00;;;;;;5023816;28;19948;-61
2021/04/23 11:34:44;;;;;;;13.43;8.50;;;10.40;62.80;;;;;;5027390;28;20022;-60
2021/04/23 11:37:30;;;;;;;18.38;10.20;;;10.50;62.00;;;;;;5035617;28;20129;-60
2021/04/23 11:40:24;;;;;;;16.20;9.82;;;10.50;62.40;;;;;;5030798;28;20029;-61
2021/04/23 11:42:54;;;;;;;15.15;9.93;;;10.40;63.20;;;;;;5047013;28;20056;-61
2021/04/23 11:45:28;;;;;;;14.02;8.88;;;10.40;64.20;;;;;;5041838;28;20026;-60
2021/04/23 11:47:57;;;;;;;14.55;9.55;;;10.40;62.40;;;;;;5031255;28;20505;-60
2021/04/23 11:50:27;;;;;;;13.93;8.57;;;10.40;62.10;;;;;;5029378;28;20140;-62
2021/04/23 11:52:59;;;;;;;15.77;8.93;;;10.40;61.10;;;;;;5045525;28;20021;-60
2021/04/23 11:55:29;;;;;;;14.75;8.68;;;10.50;61.20;;;;;;5034412;28;20041;-59
2021/04/23 11:58:18;;;;;;;14.90;8.93;;;10.70;61.60;;;;;;5045893;28;20029;-61
2021/04/23 12:00:55;;;;;;;18.10;10.45;;;10.70;61.80;;;;;;5038406;28;20029;-59
2021/04/23 12:03:21;;;;;;;21.20;9.10;;;10.90;62.30;;;;;;5036928;28;20033;-59
2021/04/23 12:05:49;;;;;;;11.57;7.78;;;10.70;62.60;;;;;;5041582;28;20033;-57
2021/04/23 12:08:15;;;;;;;12.73;9.50;;;10.70;62.20;;;;;;5035143;28;20060;-61
2021/04/23 12:10:50;;;;;;;13.25;8.20;;;10.80;61.20;;;;;;5033914;28;20065;-60
2021/04/23 12:13:18;;;;;;;16.20;8.02;;;10.90;59.90;;;;;;5034658;28;20032;-61
2021/04/23 12:15:46;;;;;;;13.48;7.20;;;10.80;59.70;;;;;;5023259;28;20068;-60
2021/04/23 12:18:13;;;;;;;12.55;8.32;;;10.90;59.30;;;;;;5044558;28;20055;-60
2021/04/23 12:20:41;;;;;;;13.95;8.75;;;11.10;59.20;;;;;;5036979;28;20029;-63
2021/04/23 12:23:10;;;;;;;14.55;7.82;;;11.30;59.00;;;;;;5020924;28;20462;-58
2021/04/23 12:25:41;;;;;;;16.52;8.50;;;11.20;59.20;;;;;;5028168;28;20040;-61
2021/04/23 12:28:15;;;;;;;11.38;8.98;;;11.40;59.70;;;;;;5036375;28;20045;-57
2021/04/23 12:30:41;;;;;;;;;;;11.50;60.50;;;;;;5032776;28;20022;-59
2021/04/23 12:33:07;;;;;;;13.25;7.47;;;11.50;61.10;;;;;;5034318;28;20410;-60
2021/04/23 12:35:42;;;;;;;13.38;7.97;;;11.70;59.70;;;;;;5036780;28;20125;-61
2021/04/23 12:38:11;;;;;;;11.80;7.47;;;11.70;58.30;;;;;;5033117;28;20029;-60
2021/04/23 12:40:47;;;;;;;16.05;8.27;;;11.60;58.70;;;;;;5017819;28;20025;-60
2021/04/23 12:43:18;;;;;;;15.52;7.80;;;11.60;59.40;;;;;;5042171;28;20100;-58
2021/04/23 12:45:47;;;;;;;15.77;8.15;;;11.30;58.70;;;;;;5035843;28;20040;-57
2021/04/23 12:48:14;;;;;;;12.95;8.48;;;11.40;59.00;;;;;;5043063;28;20041;-59
2021/04/23 12:50:39;;;;;;;16.02;8.25;;;11.70;58.20;;;;;;5032401;28;20061;-62
2021/04/23 12:53:06;;;;;;;12.57;8.93;;;11.70;58.00;;;;;;5020456;28;20064;-60